sensor_id;sensor_type;location;lat;lon;timestamp;pressure;altitude;pressure_sealevel;temperature;humidity
79077;BME280;68477;42.698;23.342;2024-03-08T00:02:16;95445.78;;;5.34;97.19
79077;BME280;68477;42.698;23.342;2024-03-08T00:04:41;95452.81;;;4.93;97.94
79077;BME280;68477;42.698;23.342;2024-03-08T00:07:08;95446.44;;;5.26;96.91
79077;BME280;68477;42.698;23.342;2024-03-08T00:09:34;95449.78;;;4.97;98.41
79077;BME280;68477;42.698;23.342;2024-03-08T00:11:59;95444.59;;;5.07;98.88
79077;BME280;68477;42.698;23.342;2024-03-08T00:14:25;95445.13;;;4.91;98.22
79077;BME280;68477;42.698;23.342;2024-03-08T00:16:50;95449.94;;;4.96;99.80
79077;BME280;68477;42.698;23.342;2024-03-08T00:19:18;95442.56;;;5.01;98.00
79077;BME280;68477;42.698;23.342;2024-03-08T00:21:43;95444.16;;;4.92;99.05
79077;BME280;68477;42.698;23.342;2024-03-08T00:24:10;95441.53;;;4.83;100.00
79077;BME280;68477;42.698;23.342;2024-03-08T00:26:35;95444.28;;;4.81;100.00
79077;BME280;68477;42.698;23.342;2024-03-08T00:29:01;95439.38;;;4.97;99.98
79077;BME280;68477;42.698;23.342;2024-03-08T00:31:26;95436.53;;;5.10;98.65
79077;BME280;68477;42.698;23.342;2024-03-08T00:33:53;95434.72;;;5.01;99.37
79077;BME280;68477;42.698;23.342;2024-03-08T00:36:18;95435.31;;;4.74;100.00
79077;BME280;68477;42.698;23.342;2024-03-08T00:38:45;95426.81;;;5.12;100.00
79077;BME280;68477;42.698;23.342;2024-03-08T00:41:11;95429.44;;;4.72;100.00
79077;BME280;68477;42.698;23.342;2024-03-08T00:43:36;95432.53;;;5.06;100.00
79077;BME280;68477;42.698;23.342;2024-03-08T00:46:02;95425.28;;;5.00;100.00
79077;BME280;68477;42.698;23.342;2024-03-08T00:48:27;95427.50;;;5.14;100.00
79077;BME280;68477;42.698;23.342;2024-03-08T00:50:53;95432.25;;;5.09;100.00
79077;BME280;68477;42.698;23.342;2024-03-08T00:53:18;95425.53;;;4.87;100.00
79077;BME280;68477;42.698;23.342;2024-03-08T00:55:44;95422.41;;;4.63;100.00
79077;BME280;68477;42.698;23.342;2024-03-08T00:58:12;95417.00;;;4.95;100.00
79077;BME280;68477;42.698;23.342;2024-03-08T01:00:37;95407.53;;;4.84;100.00
79077;BME280;68477;42.698;23.342;2024-03-08T01:03:04;95410.09;;;4.65;100.00
79077;BME280;68477;42.698;23.342;2024-03-08T01:05:30;95410.97;;;4.94;100.00
79077;BME280;68477;42.698;23.342;2024-03-08T01:07:55;95410.72;;;4.88;100.00
79077;BME280;68477;42.698;23.342;2024-03-08T01:10:21;95402.63;;;4.91;100.00
79077;BME280;68477;42.698;23.342;2024-03-08T01:12:47;95402.13;;;4.66;100.00
79077;BME280;68477;42.698;23.342;2024-03-08T01:15:12;95400.66;;;4.33;100.00
79077;BME280;68477;42.698;23.342;2024-03-08T01:17:38;95403.38;;;4.72;100.00
79077;BME280;68477;42.698;23.342;2024-03-08T01:20:04;95400.88;;;4.61;100.00
79077;BME280;68477;42.698;23.342;2024-03-08T01:22:30;95396.13;;;4.76;100.00
79077;BME280;68477;42.698;23.342;2024-03-08T01:24:56;95396.13;;;4.85;100.00
79077;BME280;68477;42.698;23.342;2024-03-08T01:27:22;95392.22;;;5.01;100.00
79077;BME280;68477;42.698;23.342;2024-03-08T01:29:48;95389.25;;;4.65;100.00
79077;BME280;68477;42.698;23.342;2024-03-08T01:32:13;95394.13;;;4.89;100.00
79077;BME280;68477;42.698;23.342;2024-03-08T01:34:40;95385.03;;;4.83;100.00
79077;BME280;68477;42.698;23.342;2024-03-08T01:37:05;95384.31;;;4.72;100.00
79077;BME280;68477;42.698;23.342;2024-03-08T01:39:32;95386.97;;;4.91;100.00
79077;BME280;68477;42.698;23.342;2024-03-08T01:41:58;95388.72;;;4.71;100.00
79077;BME280;68477;42.698;23.342;2024-03-08T01:44:23;95372.53;;;4.87;100.00
79077;BME280;68477;42.698;23.342;2024-03-08T01:46:50;95385.06;;;5.03;99.37
79077;BME280;68477;42.698;23.342;2024-03-08T01:49:17;95387.38;;;4.96;99.26
79077;BME280;68477;42.698;23.342;2024-03-08T01:51:43;95383.28;;;5.03;99.30
79077;BME280;68477;42.698;23.342;2024-03-08T01:54:10;95384.06;;;4.84;100.00
79077;BME280;68477;42.698;23.342;2024-03-08T01:56:37;95379.44;;;4.88;100.00
79077;BME280;68477;42.698;23.342;2024-03-08T01:59:04;95379.44;;;4.97;100.00
79077;BME280;68477;42.698;23.342;2024-03-08T02:01:33;95376.34;;;4.63;100.00
79077;BME280;68477;42.698;23.342;2024-03-08T02:04:01;95371.34;;;4.91;100.00
79077;BME280;68477;42.698;23.342;2024-03-08T02:06:26;95377.66;;;5.08;99.29
79077;BME280;68477;42.698;23.342;2024-03-08T02:08:52;95379.59;;;5.15;98.45
79077;BME280;68477;42.698;23.342;2024-03-08T02:11:18;95372.59;;;5.06;98.14
79077;BME280;68477;42.698;23.342;2024-03-08T02:13:46;95376.69;;;5.09;96.88
79077;BME280;68477;42.698;23.342;2024-03-08T02:16:11;95376.16;;;5.05;97.15
79077;BME280;68477;42.698;23.342;2024-03-08T02:18:37;95386.31;;;5.08;97.57
79077;BME280;68477;42.698;23.342;2024-03-08T02:21:06;95382.84;;;4.79;96.69
79077;BME280;68477;42.698;23.342;2024-03-08T02:23:32;95377.28;;;4.62;98.41
79077;BME280;68477;42.698;23.342;2024-03-08T02:25:58;95381.78;;;4.51;99.60
79077;BME280;68477;42.698;23.342;2024-03-08T02:28:24;95382.44;;;4.93;96.73
79077;BME280;68477;42.698;23.342;2024-03-08T02:30:51;95388.34;;;4.95;95.55
79077;BME280;68477;42.698;23.342;2024-03-08T02:33:20;95386.69;;;4.94;96.04
79077;BME280;68477;42.698;23.342;2024-03-08T02:35:45;95390.94;;;4.85;94.78
79077;BME280;68477;42.698;23.342;2024-03-08T02:38:13;95394.91;;;4.80;93.03
79077;BME280;68477;42.698;23.342;2024-03-08T02:40:38;95395.59;;;4.82;91.38
79077;BME280;68477;42.698;23.342;2024-03-08T02:43:04;95390.41;;;4.51;93.75
79077;BME280;68477;42.698;23.342;2024-03-08T02:45:30;95393.66;;;4.84;90.45
79077;BME280;68477;42.698;23.342;2024-03-08T02:47:56;95397.59;;;4.59;92.47
79077;BME280;68477;42.698;23.342;2024-03-08T02:50:21;95401.56;;;4.63;91.43
79077;BME280;68477;42.698;23.342;2024-03-08T02:52:48;95394.28;;;4.57;92.82
79077;BME280;68477;42.698;23.342;2024-03-08T02:55:14;95392.38;;;4.28;92.18
79077;BME280;68477;42.698;23.342;2024-03-08T02:57:43;95384.00;;;4.55;92.21
79077;BME280;68477;42.698;23.342;2024-03-08T03:00:13;95388.72;;;4.41;92.12
79077;BME280;68477;42.698;23.342;2024-03-08T03:02:39;95390.28;;;4.43;92.47
79077;BME280;68477;42.698;23.342;2024-03-08T03:05:05;95389.63;;;4.20;93.40
79077;BME280;68477;42.698;23.342;2024-03-08T03:07:34;95390.03;;;4.56;90.56
79077;BME280;68477;42.698;23.342;2024-03-08T03:10:00;95389.34;;;4.63;88.29
79077;BME280;68477;42.698;23.342;2024-03-08T03:12:27;95393.56;;;4.45;89.80
79077;BME280;68477;42.698;23.342;2024-03-08T03:14:53;95396.34;;;4.63;89.22
79077;BME280;68477;42.698;23.342;2024-03-08T03:17:18;95389.53;;;4.72;86.63
79077;BME280;68477;42.698;23.342;2024-03-08T03:19:45;95399.59;;;4.46;87.81
79077;BME280;68477;42.698;23.342;2024-03-08T03:22:12;95401.28;;;4.26;89.81
79077;BME280;68477;42.698;23.342;2024-03-08T03:24:38;95403.66;;;4.38;89.99
79077;BME280;68477;42.698;23.342;2024-03-08T03:27:07;95404.41;;;4.50;87.66
79077;BME280;68477;42.698;23.342;2024-03-08T03:29:43;95407.97;;;4.49;87.96
79077;BME280;68477;42.698;23.342;2024-03-08T03:32:12;95403.28;;;4.13;90.41
79077;BME280;68477;42.698;23.342;2024-03-08T03:34:39;95414.66;;;4.12;90.30
79077;BME280;68477;42.698;23.342;2024-03-08T03:37:05;95409.19;;;3.94;90.58
79077;BME280;68477;42.698;23.342;2024-03-08T03:39:33;95412.59;;;4.15;90.20
79077;BME280;68477;42.698;23.342;2024-03-08T03:42:00;95416.56;;;4.40;90.50
79077;BME280;68477;42.698;23.342;2024-03-08T03:44:28;95419.59;;;4.15;90.40
79077;BME280;68477;42.698;23.342;2024-03-08T03:46:53;95422.75;;;4.18;90.36
79077;BME280;68477;42.698;23.342;2024-03-08T03:49:19;95426.63;;;4.54;88.37
79077;BME280;68477;42.698;23.342;2024-03-08T03:51:45;95427.19;;;4.58;86.93
79077;BME280;68477;42.698;23.342;2024-03-08T03:54:11;95428.19;;;4.36;89.80
79077;BME280;68477;42.698;23.342;2024-03-08T03:56:37;95434.53;;;4.43;89.35
79077;BME280;68477;42.698;23.342;2024-03-08T03:59:05;95430.09;;;4.64;87.17
79077;BME280;68477;42.698;23.342;2024-03-08T04:01:32;95437.91;;;4.64;87.57
79077;BME280;68477;42.698;23.342;2024-03-08T04:03:57;95438.34;;;4.39;90.06
79077;BME280;68477;42.698;23.342;2024-03-08T04:06:23;95438.03;;;4.63;88.97
79077;BME280;68477;42.698;23.342;2024-03-08T04:08:49;95433.19;;;4.49;88.95
79077;BME280;68477;42.698;23.342;2024-03-08T04:11:15;95441.00;;;4.49;89.53
79077;BME280;68477;42.698;23.342;2024-03-08T04:13:42;95439.84;;;4.11;91.35
79077;BME280;68477;42.698;23.342;2024-03-08T04:16:08;95444.91;;;4.13;90.43
79077;BME280;68477;42.698;23.342;2024-03-08T04:18:34;95445.06;;;4.42;90.42
79077;BME280;68477;42.698;23.342;2024-03-08T04:21:06;95453.41;;;4.35;90.13
79077;BME280;68477;42.698;23.342;2024-03-08T04:23:34;95452.97;;;4.30;90.29
79077;BME280;68477;42.698;23.342;2024-03-08T04:26:04;95456.72;;;4.17;91.60
79077;BME280;68477;42.698;23.342;2024-03-08T04:28:31;95451.88;;;4.33;91.13
79077;BME280;68477;42.698;23.342;2024-03-08T04:30:57;95459.72;;;4.12;92.82
79077;BME280;68477;42.698;23.342;2024-03-08T04:33:26;95466.75;;;4.00;93.24
79077;BME280;68477;42.698;23.342;2024-03-08T04:35:52;95461.56;;;4.21;94.45
79077;BME280;68477;42.698;23.342;2024-03-08T04:38:17;95469.59;;;4.39;92.85
79077;BME280;68477;42.698;23.342;2024-03-08T04:40:42;95473.56;;;4.13;93.88
79077;BME280;68477;42.698;23.342;2024-03-08T04:43:08;95472.94;;;4.30;94.62
79077;BME280;68477;42.698;23.342;2024-03-08T04:45:36;95470.75;;;4.25;94.93
79077;BME280;68477;42.698;23.342;2024-03-08T04:48:02;95472.78;;;4.22;93.79
79077;BME280;68477;42.698;23.342;2024-03-08T04:50:27;95464.97;;;4.52;93.87
79077;BME280;68477;42.698;23.342;2024-03-08T04:52:56;95476.22;;;4.22;95.06
79077;BME280;68477;42.698;23.342;2024-03-08T04:55:21;95475.38;;;3.80;97.33
79077;BME280;68477;42.698;23.342;2024-03-08T04:57:48;95476.78;;;4.05;95.70
79077;BME280;68477;42.698;23.342;2024-03-08T05:00:14;95486.22;;;4.48;94.61
79077;BME280;68477;42.698;23.342;2024-03-08T05:02:41;95479.69;;;4.63;94.51
79077;BME280;68477;42.698;23.342;2024-03-08T05:05:07;95489.06;;;4.75;92.91
79077;BME280;68477;42.698;23.342;2024-03-08T05:07:34;95479.41;;;4.56;93.16
79077;BME280;68477;42.698;23.342;2024-03-08T05:10:00;95483.66;;;4.57;93.26
79077;BME280;68477;42.698;23.342;2024-03-08T05:12:27;95486.81;;;4.61;93.47
79077;BME280;68477;42.698;23.342;2024-03-08T05:14:53;95492.94;;;4.50;93.77
79077;BME280;68477;42.698;23.342;2024-03-08T05:17:19;95494.94;;;4.16;94.49
79077;BME280;68477;42.698;23.342;2024-03-08T05:19:44;95499.19;;;4.17;95.41
79077;BME280;68477;42.698;23.342;2024-03-08T05:22:10;95500.75;;;4.29;94.54
79077;BME280;68477;42.698;23.342;2024-03-08T05:24:35;95497.34;;;4.29;95.20
79077;BME280;68477;42.698;23.342;2024-03-08T05:27:01;95507.13;;;4.36;92.12
79077;BME280;68477;42.698;23.342;2024-03-08T05:29:28;95518.16;;;4.29;92.70
79077;BME280;68477;42.698;23.342;2024-03-08T05:31:54;95512.72;;;4.32;94.48
79077;BME280;68477;42.698;23.342;2024-03-08T05:34:21;95527.88;;;4.27;94.06
79077;BME280;68477;42.698;23.342;2024-03-08T05:36:47;95527.06;;;4.26;93.20
79077;BME280;68477;42.698;23.342;2024-03-08T05:39:15;95530.16;;;3.99;94.00
79077;BME280;68477;42.698;23.342;2024-03-08T05:41:41;95540.19;;;4.04;93.59
79077;BME280;68477;42.698;23.342;2024-03-08T05:44:07;95531.47;;;3.94;93.62
79077;BME280;68477;42.698;23.342;2024-03-08T05:46:33;95537.81;;;4.33;92.65
79077;BME280;68477;42.698;23.342;2024-03-08T05:49:00;95537.94;;;4.31;93.92
79077;BME280;68477;42.698;23.342;2024-03-08T05:51:26;95544.06;;;4.51;92.07
79077;BME280;68477;42.698;23.342;2024-03-08T05:53:53;95546.03;;;4.17;93.37
79077;BME280;68477;42.698;23.342;2024-03-08T05:56:21;95540.22;;;4.25;92.01
79077;BME280;68477;42.698;23.342;2024-03-08T05:58:48;95549.75;;;4.35;92.86
79077;BME280;68477;42.698;23.342;2024-03-08T06:01:15;95556.41;;;4.49;92.44
79077;BME280;68477;42.698;23.342;2024-03-08T06:03:41;95560.72;;;4.39;94.53
79077;BME280;68477;42.698;23.342;2024-03-08T06:06:13;95553.78;;;4.49;93.53
79077;BME280;68477;42.698;23.342;2024-03-08T06:08:38;95564.41;;;4.36;94.26
79077;BME280;68477;42.698;23.342;2024-03-08T06:11:04;95557.69;;;4.34;95.13
79077;BME280;68477;42.698;23.342;2024-03-08T06:13:31;95571.78;;;4.31;94.65
79077;BME280;68477;42.698;23.342;2024-03-08T06:15:57;95572.28;;;4.46;92.82
79077;BME280;68477;42.698;23.342;2024-03-08T06:18:22;95571.19;;;4.49;91.26
79077;BME280;68477;42.698;23.342;2024-03-08T06:20:48;95572.44;;;4.13;92.04
79077;BME280;68477;42.698;23.342;2024-03-08T06:23:13;95577.97;;;3.98;91.67
79077;BME280;68477;42.698;23.342;2024-03-08T06:25:46;95584.06;;;4.29;91.88
79077;BME280;68477;42.698;23.342;2024-03-08T06:28:11;95580.88;;;4.58;91.58
79077;BME280;68477;42.698;23.342;2024-03-08T06:30:37;95583.03;;;4.32;90.97
79077;BME280;68477;42.698;23.342;2024-03-08T06:33:02;95583.06;;;4.21;93.25
79077;BME280;68477;42.698;23.342;2024-03-08T06:35:28;95583.03;;;4.32;91.64
79077;BME280;68477;42.698;23.342;2024-03-08T06:37:53;95577.53;;;4.14;90.46
79077;BME280;68477;42.698;23.342;2024-03-08T06:40:19;95579.41;;;4.65;91.05
79077;BME280;68477;42.698;23.342;2024-03-08T06:42:44;95576.59;;;4.57;89.34
79077;BME280;68477;42.698;23.342;2024-03-08T06:45:11;95584.34;;;4.68;88.57
79077;BME280;68477;42.698;23.342;2024-03-08T06:47:38;95582.38;;;4.39;89.44
79077;BME280;68477;42.698;23.342;2024-03-08T06:50:07;95584.84;;;4.41;91.72
79077;BME280;68477;42.698;23.342;2024-03-08T06:52:34;95584.78;;;4.52;90.05
79077;BME280;68477;42.698;23.342;2024-03-08T06:54:59;95590.72;;;4.33;89.62
79077;BME280;68477;42.698;23.342;2024-03-08T06:57:26;95594.50;;;4.71;88.74
79077;BME280;68477;42.698;23.342;2024-03-08T06:59:52;95589.00;;;4.64;88.15
79077;BME280;68477;42.698;23.342;2024-03-08T07:02:17;95597.94;;;4.92;87.05
79077;BME280;68477;42.698;23.342;2024-03-08T07:04:44;95590.72;;;4.54;86.39
79077;BME280;68477;42.698;23.342;2024-03-08T07:07:09;95594.19;;;4.85;88.85
79077;BME280;68477;42.698;23.342;2024-03-08T07:09:36;95595.31;;;4.92;86.00
79077;BME280;68477;42.698;23.342;2024-03-08T07:12:02;95591.91;;;4.92;84.62
79077;BME280;68477;42.698;23.342;2024-03-08T07:14:27;95594.91;;;4.87;88.01
79077;BME280;68477;42.698;23.342;2024-03-08T07:16:54;95601.38;;;4.93;85.82
79077;BME280;68477;42.698;23.342;2024-03-08T07:19:19;95600.41;;;4.94;87.42
79077;BME280;68477;42.698;23.342;2024-03-08T07:21:46;95601.56;;;4.80;87.17
79077;BME280;68477;42.698;23.342;2024-03-08T07:24:13;95604.53;;;4.96;87.55
79077;BME280;68477;42.698;23.342;2024-03-08T07:27:13;95606.91;;;4.79;86.72
79077;BME280;68477;42.698;23.342;2024-03-08T07:29:39;95606.50;;;4.62;88.07
79077;BME280;68477;42.698;23.342;2024-03-08T07:32:05;95607.19;;;4.76;87.76
79077;BME280;68477;42.698;23.342;2024-03-08T07:34:51;95612.03;;;5.20;86.89
79077;BME280;68477;42.698;23.342;2024-03-08T07:37:19;95607.59;;;5.02;87.31
79077;BME280;68477;42.698;23.342;2024-03-08T07:39:45;95618.34;;;4.87;89.64
79077;BME280;68477;42.698;23.342;2024-03-08T07:42:11;95616.88;;;5.25;87.04
79077;BME280;68477;42.698;23.342;2024-03-08T07:44:37;95620.13;;;5.17;87.31
79077;BME280;68477;42.698;23.342;2024-03-08T07:47:03;95614.97;;;5.27;88.48
79077;BME280;68477;42.698;23.342;2024-03-08T07:49:29;95615.69;;;4.99;90.17
79077;BME280;68477;42.698;23.342;2024-03-08T07:51:56;95610.75;;;4.84;87.63
79077;BME280;68477;42.698;23.342;2024-03-08T07:54:21;95612.34;;;4.96;84.09
79077;BME280;68477;42.698;23.342;2024-03-08T07:56:47;95618.34;;;4.87;85.94
79077;BME280;68477;42.698;23.342;2024-03-08T07:59:12;95610.97;;;4.92;87.89
79077;BME280;68477;42.698;23.342;2024-03-08T08:01:38;95614.47;;;5.33;86.46
79077;BME280;68477;42.698;23.342;2024-03-08T08:04:05;95611.34;;;5.49;85.38
79077;BME280;68477;42.698;23.342;2024-03-08T08:06:30;95618.09;;;5.51;85.22
79077;BME280;68477;42.698;23.342;2024-03-08T08:08:58;95614.69;;;5.61;80.99
79077;BME280;68477;42.698;23.342;2024-03-08T08:11:26;95607.13;;;5.58;83.66
79077;BME280;68477;42.698;23.342;2024-03-08T08:13:53;95612.31;;;5.17;81.57
79077;BME280;68477;42.698;23.342;2024-03-08T08:16:20;95616.00;;;5.45;81.59
79077;BME280;68477;42.698;23.342;2024-03-08T08:18:46;95613.19;;;5.77;80.93
79077;BME280;68477;42.698;23.342;2024-03-08T08:21:14;95610.28;;;6.21;78.38
79077;BME280;68477;42.698;23.342;2024-03-08T08:23:40;95610.69;;;6.16;76.63
79077;BME280;68477;42.698;23.342;2024-03-08T08:26:05;95611.94;;;6.41;78.06
79077;BME280;68477;42.698;23.342;2024-03-08T08:28:32;95603.28;;;6.31;76.45
79077;BME280;68477;42.698;23.342;2024-03-08T08:30:58;95606.13;;;6.76;75.98
79077;BME280;68477;42.698;23.342;2024-03-08T08:33:25;95609.66;;;7.04;75.07
79077;BME280;68477;42.698;23.342;2024-03-08T08:35:51;95609.16;;;6.91;73.88
79077;BME280;68477;42.698;23.342;2024-03-08T08:38:19;95608.47;;;6.79;73.45
79077;BME280;68477;42.698;23.342;2024-03-08T08:40:45;95605.88;;;6.69;72.42
79077;BME280;68477;42.698;23.342;2024-03-08T08:43:12;95614.16;;;6.46;74.84
79077;BME280;68477;42.698;23.342;2024-03-08T08:45:38;95612.97;;;7.06;72.76
79077;BME280;68477;42.698;23.342;2024-03-08T08:48:04;95606.75;;;7.44;73.89
79077;BME280;68477;42.698;23.342;2024-03-08T08:50:30;95604.16;;;7.44;71.85
79077;BME280;68477;42.698;23.342;2024-03-08T08:52:56;95604.88;;;7.92;71.90
79077;BME280;68477;42.698;23.342;2024-03-08T08:55:22;95605.53;;;7.76;70.79
79077;BME280;68477;42.698;23.342;2024-03-08T08:57:53;95613.50;;;7.10;72.40
79077;BME280;68477;42.698;23.342;2024-03-08T09:00:19;95606.78;;;7.72;71.50
79077;BME280;68477;42.698;23.342;2024-03-08T09:02:46;95600.75;;;7.34;70.50
79077;BME280;68477;42.698;23.342;2024-03-08T09:05:12;95596.75;;;7.95;67.26
79077;BME280;68477;42.698;23.342;2024-03-08T09:07:40;95598.31;;;8.23;65.99
79077;BME280;68477;42.698;23.342;2024-03-08T09:10:06;95588.22;;;8.64;66.59
79077;BME280;68477;42.698;23.342;2024-03-08T09:12:31;95600.03;;;9.12;66.73
79077;BME280;68477;42.698;23.342;2024-03-08T09:14:58;95591.72;;;9.50;67.82
79077;BME280;68477;42.698;23.342;2024-03-08T09:17:25;95590.81;;;8.82;67.37
79077;BME280;68477;42.698;23.342;2024-03-08T09:19:51;95586.50;;;8.72;65.99
79077;BME280;68477;42.698;23.342;2024-03-08T09:22:17;95589.50;;;9.38;64.16
79077;BME280;68477;42.698;23.342;2024-03-08T09:24:43;95594.63;;;8.87;67.22
79077;BME280;68477;42.698;23.342;2024-03-08T09:27:09;95591.97;;;9.31;64.98
79077;BME280;68477;42.698;23.342;2024-03-08T09:29:35;95590.38;;;9.12;65.33
79077;BME280;68477;42.698;23.342;2024-03-08T09:32:01;95590.78;;;8.38;68.55
79077;BME280;68477;42.698;23.342;2024-03-08T09:34:26;95587.69;;;8.60;67.68
79077;BME280;68477;42.698;23.342;2024-03-08T09:36:52;95578.19;;;8.24;68.38
79077;BME280;68477;42.698;23.342;2024-03-08T09:39:19;95587.41;;;8.63;65.44
79077;BME280;68477;42.698;23.342;2024-03-08T09:41:46;95578.28;;;10.04;63.18
79077;BME280;68477;42.698;23.342;2024-03-08T09:44:15;95589.03;;;9.76;62.99
79077;BME280;68477;42.698;23.342;2024-03-08T09:46:42;95588.81;;;10.12;63.73
79077;BME280;68477;42.698;23.342;2024-03-08T09:49:08;95587.59;;;9.90;61.55
79077;BME280;68477;42.698;23.342;2024-03-08T09:51:37;95589.47;;;9.03;62.66
79077;BME280;68477;42.698;23.342;2024-03-08T09:54:05;95587.09;;;8.66;65.66
79077;BME280;68477;42.698;23.342;2024-03-08T09:56:39;95589.41;;;8.69;66.16
79077;BME280;68477;42.698;23.342;2024-03-08T09:59:06;95591.50;;;8.12;66.73
79077;BME280;68477;42.698;23.342;2024-03-08T10:02:14;95585.88;;;8.25;68.16
79077;BME280;68477;42.698;23.342;2024-03-08T10:04:40;95595.13;;;8.29;67.06
79077;BME280;68477;42.698;23.342;2024-03-08T10:07:11;95583.31;;;8.43;67.24
79077;BME280;68477;42.698;23.342;2024-03-08T10:09:38;95587.75;;;8.33;67.58
79077;BME280;68477;42.698;23.342;2024-03-08T10:12:04;95588.03;;;8.39;64.35
79077;BME280;68477;42.698;23.342;2024-03-08T10:14:30;95587.44;;;8.71;63.28
79077;BME280;68477;42.698;23.342;2024-03-08T10:16:57;95581.84;;;9.44;62.11
79077;BME280;68477;42.698;23.342;2024-03-08T10:19:27;95578.72;;;9.83;60.83
79077;BME280;68477;42.698;23.342;2024-03-08T10:21:53;95590.53;;;10.94;60.73
79077;BME280;68477;42.698;23.342;2024-03-08T10:24:24;95580.44;;;11.30;57.04
79077;BME280;68477;42.698;23.342;2024-03-08T10:27:08;95579.41;;;11.56;55.60
79077;BME280;68477;42.698;23.342;2024-03-08T10:29:33;95581.16;;;10.27;60.28
79077;BME280;68477;42.698;23.342;2024-03-08T10:31:59;95584.28;;;10.38;60.87
79077;BME280;68477;42.698;23.342;2024-03-08T10:34:25;95575.25;;;10.33;60.42
79077;BME280;68477;42.698;23.342;2024-03-08T10:36:51;95580.50;;;10.25;59.70
79077;BME280;68477;42.698;23.342;2024-03-08T10:39:23;95583.63;;;10.93;56.61
79077;BME280;68477;42.698;23.342;2024-03-08T10:41:58;95581.50;;;10.89;58.10
79077;BME280;68477;42.698;23.342;2024-03-08T10:47:18;95572.09;;;10.21;60.48
79077;BME280;68477;42.698;23.342;2024-03-08T10:52:35;95563.47;;;11.41;53.60
79077;BME280;68477;42.698;23.342;2024-03-08T10:55:02;95567.25;;;12.86;54.30
79077;BME280;68477;42.698;23.342;2024-03-08T10:57:28;95566.97;;;11.81;55.02
79077;BME280;68477;42.698;23.342;2024-03-08T10:59:54;95558.31;;;11.95;52.61
79077;BME280;68477;42.698;23.342;2024-03-08T11:02:20;95555.25;;;11.44;53.58
79077;BME280;68477;42.698;23.342;2024-03-08T11:04:50;95548.63;;;12.64;50.29
79077;BME280;68477;42.698;23.342;2024-03-08T11:07:16;95557.06;;;12.14;53.24
79077;BME280;68477;42.698;23.342;2024-03-08T11:09:47;95540.31;;;12.52;53.36
79077;BME280;68477;42.698;23.342;2024-03-08T11:12:28;95543.06;;;13.11;51.76
79077;BME280;68477;42.698;23.342;2024-03-08T11:15:11;95538.78;;;13.10;50.51
79077;BME280;68477;42.698;23.342;2024-03-08T11:20:15;95542.28;;;11.65;52.82
79077;BME280;68477;42.698;23.342;2024-03-08T11:22:48;95540.63;;;12.35;49.50
79077;BME280;68477;42.698;23.342;2024-03-08T11:25:41;95536.03;;;12.89;48.16
79077;BME280;68477;42.698;23.342;2024-03-08T11:30:42;95531.75;;;13.26;47.03
79077;BME280;68477;42.698;23.342;2024-03-08T11:33:11;95530.34;;;14.46;41.43
79077;BME280;68477;42.698;23.342;2024-03-08T11:35:38;95524.25;;;16.06;40.10
79077;BME280;68477;42.698;23.342;2024-03-08T11:38:04;95521.66;;;15.64;39.98
79077;BME280;68477;42.698;23.342;2024-03-08T11:40:30;95530.06;;;15.81;39.60
79077;BME280;68477;42.698;23.342;2024-03-08T11:42:58;95515.03;;;14.63;41.94
79077;BME280;68477;42.698;23.342;2024-03-08T11:45:24;95512.09;;;16.31;39.30
79077;BME280;68477;42.698;23.342;2024-03-08T11:47:50;95517.59;;;13.63;44.09
79077;BME280;68477;42.698;23.342;2024-03-08T11:50:15;95523.69;;;11.98;46.78
79077;BME280;68477;42.698;23.342;2024-03-08T11:52:43;95521.13;;;11.03;49.99
79077;BME280;68477;42.698;23.342;2024-03-08T11:55:09;95522.78;;;11.44;49.64
79077;BME280;68477;42.698;23.342;2024-03-08T11:57:34;95518.09;;;12.85;46.37
79077;BME280;68477;42.698;23.342;2024-03-08T12:00:01;95513.19;;;14.42;41.99
79077;BME280;68477;42.698;23.342;2024-03-08T12:02:35;95517.59;;;13.63;44.39
79077;BME280;68477;42.698;23.342;2024-03-08T12:05:05;95515.53;;;14.73;41.23
79077;BME280;68477;42.698;23.342;2024-03-08T12:07:35;95516.94;;;13.76;44.94
79077;BME280;68477;42.698;23.342;2024-03-08T12:10:18;95512.28;;;13.78;43.42
79077;BME280;68477;42.698;23.342;2024-03-08T12:12:48;95519.53;;;13.39;44.30
79077;BME280;68477;42.698;23.342;2024-03-08T12:15:15;95511.88;;;15.71;40.18
79077;BME280;68477;42.698;23.342;2024-03-08T12:17:41;95507.94;;;15.26;39.97
79077;BME280;68477;42.698;23.342;2024-03-08T12:20:22;95516.34;;;14.74;41.27
79077;BME280;68477;42.698;23.342;2024-03-08T12:22:48;95515.38;;;14.81;41.91
79077;BME280;68477;42.698;23.342;2024-03-08T12:25:15;95512.88;;;14.73;42.53
79077;BME280;68477;42.698;23.342;2024-03-08T12:27:42;95510.59;;;11.90;48.30
79077;BME280;68477;42.698;23.342;2024-03-08T12:30:24;95511.13;;;13.65;45.14
79077;BME280;68477;42.698;23.342;2024-03-08T12:32:58;95502.50;;;15.34;42.67
79077;BME280;68477;42.698;23.342;2024-03-08T12:35:26;95507.78;;;15.69;41.21
79077;BME280;68477;42.698;23.342;2024-03-08T12:37:53;95506.78;;;14.51;42.30
79077;BME280;68477;42.698;23.342;2024-03-08T12:40:28;95504.13;;;12.61;47.11
79077;BME280;68477;42.698;23.342;2024-03-08T12:42:55;95504.84;;;12.09;49.75
79077;BME280;68477;42.698;23.342;2024-03-08T12:45:24;95496.84;;;11.63;50.27
79077;BME280;68477;42.698;23.342;2024-03-08T12:47:54;95493.22;;;11.64;47.75
79077;BME280;68477;42.698;23.342;2024-03-08T12:50:23;95494.59;;;14.57;44.93
79077;BME280;68477;42.698;23.342;2024-03-08T12:52:53;95498.03;;;14.51;43.92
79077;BME280;68477;42.698;23.342;2024-03-08T12:55:19;95492.44;;;14.67;41.96
79077;BME280;68477;42.698;23.342;2024-03-08T12:57:44;95495.13;;;15.64;39.35
79077;BME280;68477;42.698;23.342;2024-03-08T13:00:11;95482.50;;;17.07;38.44
79077;BME280;68477;42.698;23.342;2024-03-08T13:02:46;95493.28;;;16.26;38.45
79077;BME280;68477;42.698;23.342;2024-03-08T13:05:11;95490.19;;;15.20;39.15
79077;BME280;68477;42.698;23.342;2024-03-08T13:07:42;95491.88;;;15.00;40.24
79077;BME280;68477;42.698;23.342;2024-03-08T13:10:15;95491.00;;;16.10;39.48